createdAt,value
2023-12-01T00:00:35.291Z,90166.28
2023-12-01T00:03:02.082Z,90152.47
2023-12-01T00:05:28.878Z,90151.19
2023-12-01T00:07:55.476Z,90145.75
2023-12-01T00:10:22.440Z,90133.41
2023-12-01T00:12:49.242Z,90136.28
2023-12-01T00:15:15.915Z,90135.75
2023-12-01T00:17:42.524Z,90123.38
2023-12-01T00:20:09.897Z,90128.28
2023-12-01T00:22:36.464Z,90127.56
2023-12-01T00:25:03.211Z,90119.94
2023-12-01T00:27:29.830Z,90110.31
2023-12-01T00:29:56.494Z,90095.41
2023-12-01T00:32:23.108Z,90079.06
2023-12-01T00:34:50.557Z,90086.50
2023-12-01T00:37:18.140Z,90089.97
2023-12-01T00:39:44.992Z,90089.97
2023-12-01T00:42:13.885Z,90091.38
2023-12-01T00:44:40.611Z,90094.13
2023-12-01T00:47:07.200Z,90097.41
2023-12-01T00:49:33.802Z,90089.97
2023-12-01T00:52:00.430Z,90093.38
2023-12-01T00:54:27.004Z,90099.41
2023-12-01T00:56:53.610Z,90092.69
2023-12-01T00:59:20.189Z,90083.22
2023-12-01T01:01:47.027Z,90085.94
2023-12-01T01:04:13.783Z,90087.41
2023-12-01T01:06:40.592Z,90095.72
2023-12-01T01:09:07.185Z,90094.47
2023-12-01T01:11:33.741Z,90094.47
2023-12-01T01:14:00.860Z,90090.44
2023-12-01T01:16:27.664Z,90084.13
2023-12-01T01:18:54.314Z,90105.38
2023-12-01T01:21:21.069Z,90093.00
2023-12-01T01:23:47.691Z,90098.44
2023-12-01T01:26:15.345Z,90116.28
2023-12-01T01:28:42.033Z,90116.09
2023-12-01T01:31:09.077Z,90108.66
2023-12-01T01:33:37.401Z,90103.91
2023-12-01T01:36:05.170Z,90114.09
2023-12-01T01:38:31.832Z,90122.84
2023-12-01T01:40:58.414Z,90120.81
2023-12-01T01:43:25.791Z,90114.09
2023-12-01T01:46:03.827Z,90108.66
2023-12-01T01:48:31.598Z,90103.91
2023-12-01T01:50:59.234Z,90101.19
2023-12-01T01:53:26.620Z,90092.28
2023-12-01T01:55:53.294Z,90090.13
2023-12-01T01:58:20.564Z,90077.75
2023-12-01T02:00:51.011Z,90071.03
2023-12-01T02:03:20.225Z,90075.22
2023-12-01T02:05:49.051Z,90074.47
2023-12-01T02:08:23.411Z,90065.59
2023-12-01T02:10:50.544Z,90059.03
2023-12-01T02:13:17.382Z,90050.84
2023-12-01T02:15:44.290Z,90072.66
2023-12-01T02:18:31.604Z,90079.38
2023-12-01T02:20:59.312Z,90076.66
2023-12-01T02:23:26.316Z,90083.94
2023-12-01T02:25:53.239Z,90092.28
2023-12-01T02:28:20.470Z,90098.44
2023-12-01T02:30:51.704Z,90093.72
2023-12-01T02:33:18.942Z,90098.44
2023-12-01T02:35:47.037Z,90077.38
2023-12-01T02:38:14.232Z,90077.94
2023-12-01T02:40:50.888Z,90103.91
2023-12-01T02:43:19.158Z,90102.63
2023-12-01T02:45:46.419Z,90090.28
2023-12-01T02:48:13.634Z,90084.81
2023-12-01T02:50:40.318Z,90087.53
2023-12-01T02:53:07.330Z,90088.28
2023-12-01T02:55:34.024Z,90102.47
2023-12-01T02:58:01.044Z,90102.47
2023-12-01T03:00:27.883Z,90098.44
2023-12-01T03:02:54.463Z,90093.00
2023-12-01T03:05:21.659Z,90083.56
2023-12-01T03:07:49.127Z,90095.19
2023-12-01T03:10:16.361Z,90090.44
2023-12-01T03:12:44.805Z,90085.00
2023-12-01T03:15:13.475Z,90069.94
2023-12-01T03:17:40.948Z,90080.84
2023-12-01T03:20:10.584Z,90083.56
2023-12-01T03:22:39.655Z,90082.81
2023-12-01T03:25:16.128Z,90072.66
2023-12-01T03:27:44.565Z,90072.66
2023-12-01T03:30:16.307Z,90073.38
2023-12-01T03:32:51.677Z,90079.53
2023-12-01T03:35:22.980Z,90089.00
2023-12-01T03:37:50.857Z,90079.53
2023-12-01T03:40:17.724Z,90079.53
2023-12-01T03:42:45.679Z,90085.00
2023-12-01T03:45:13.551Z,90073.38
2023-12-01T03:47:42.352Z,90078.84
2023-12-01T03:50:15.341Z,90079.53
2023-12-01T03:52:43.317Z,90068.63
2023-12-01T03:55:11.691Z,90074.09
2023-12-01T03:57:42.736Z,90074.09
2023-12-01T04:00:15.294Z,90075.38
2023-12-01T04:02:44.590Z,90078.84
2023-12-01T04:05:21.768Z,90074.81
2023-12-01T04:07:56.409Z,90074.81
2023-12-01T04:10:26.316Z,90078.28
2023-12-01T04:12:53.811Z,90078.28
2023-12-01T04:15:21.768Z,90081.00
2023-12-01T04:17:50.609Z,90086.44
2023-12-01T04:20:23.280Z,90079.53
2023-12-01T04:22:55.368Z,90074.09
2023-12-01T04:25:22.253Z,90075.56
2023-12-01T04:27:49.621Z,90074.81
2023-12-01T04:30:17.694Z,90059.03
2023-12-01T04:32:45.938Z,90066.63
2023-12-01T04:35:13.536Z,90057.72
2023-12-01T04:37:43.379Z,90058.47
2023-12-01T04:40:16.938Z,90061.19
2023-12-01T04:42:48.708Z,90067.38
2023-12-01T04:45:17.844Z,90066.47
2023-12-01T04:47:45.973Z,90057.72
2023-12-01T04:50:16.678Z,90051.56
2023-12-01T04:52:48.889Z,90050.84
2023-12-01T04:55:17.500Z,90056.28
2023-12-01T04:57:45.467Z,90053.75
2023-12-01T05:00:21.154Z,90059.75
2023-12-01T05:02:52.361Z,90061.19
2023-12-01T05:05:20.764Z,90070.09
2023-12-01T05:07:52.022Z,90067.38
2023-12-01T05:10:23.483Z,90072.66
2023-12-01T05:12:52.315Z,90071.34
2023-12-01T05:15:20.702Z,90081.56
2023-12-01T05:17:55.883Z,90082.25
2023-12-01T05:20:25.198Z,90085.72
2023-12-01T05:22:56.917Z,90091.16
2023-12-01T05:25:26.976Z,90090.44
2023-12-01T05:27:56.506Z,90095.91
2023-12-01T05:30:27.795Z,90102.81
2023-12-01T05:32:55.983Z,90098.06
2023-12-01T05:35:23.031Z,90091.91
2023-12-01T05:37:51.937Z,90090.44
2023-12-01T05:40:22.281Z,90091.16
2023-12-01T05:42:51.253Z,90093.16
2023-12-01T05:45:18.309Z,90091.72
2023-12-01T05:47:46.947Z,90085.00
2023-12-01T05:50:15.772Z,90089.00
2023-12-01T05:52:44.663Z,90082.81
2023-12-01T05:55:19.081Z,90086.28
2023-12-01T05:57:50.666Z,90091.91
2023-12-01T06:00:18.934Z,90100.09
2023-12-01T06:02:46.130Z,90098.78
2023-12-01T06:05:17.117Z,90094.81
2023-12-01T06:07:46.155Z,90083.91
2023-12-01T06:10:13.498Z,90083.91
2023-12-01T06:12:40.907Z,90085.34
2023-12-01T06:15:10.847Z,90095.50
2023-12-01T06:17:42.885Z,90095.50
2023-12-01T06:20:20.226Z,90089.34
2023-12-01T06:22:50.766Z,90078.44
2023-12-01T06:25:20.401Z,90083.91
2023-12-01T06:27:48.150Z,90100.25
2023-12-01T06:30:16.776Z,90099.53
2023-12-01T06:32:44.999Z,90094.81
2023-12-01T06:35:14.334Z,90085.34
2023-12-01T06:37:41.872Z,90075.16
2023-12-01T06:40:13.198Z,90077.88
2023-12-01T06:42:42.367Z,90081.31
2023-12-01T06:45:19.034Z,90089.66
2023-12-01T06:47:48.092Z,90091.13
2023-12-01T06:50:16.434Z,90079.50
2023-12-01T06:52:49.520Z,90094.56
2023-12-01T06:55:16.742Z,90104.19
2023-12-01T06:57:45.973Z,90106.38
2023-12-01T07:00:30.010Z,90111.81
2023-12-01T07:03:00.775Z,90105.09
2023-12-01T07:05:29.110Z,90106.53
2023-12-01T07:07:57.500Z,90116.16
2023-12-01T07:10:25.137Z,90116.88
2023-12-01T07:12:54.108Z,90109.44
2023-12-01T07:15:22.131Z,90110.00
2023-12-01T07:17:55.133Z,90111.97
2023-12-01T07:20:22.719Z,90113.97
2023-12-01T07:22:52.295Z,90103.81
2023-12-01T07:25:23.564Z,90116.16
2023-12-01T07:27:51.752Z,90128.50
2023-12-01T07:30:18.492Z,90119.03
2023-12-01T07:32:49.523Z,90121.94
2023-12-01T07:35:16.952Z,90138.31
2023-12-01T07:37:44.934Z,90137.75
2023-12-01T07:40:20.678Z,90135.56
2023-12-01T07:42:49.758Z,90134.31
2023-12-01T07:45:20.658Z,90134.31
2023-12-01T07:47:49.544Z,90138.31
2023-12-01T07:50:17.549Z,90139.78
2023-12-01T07:52:48.577Z,90136.69
2023-12-01T07:55:16.001Z,90132.69
2023-12-01T07:57:43.097Z,90139.44
2023-12-01T08:00:17.500Z,90140.84
2023-12-01T08:02:44.369Z,90128.50
2023-12-01T08:05:15.302Z,90133.97
2023-12-01T08:07:45.619Z,90125.78
2023-12-01T08:10:21.371Z,90127.78
2023-12-01T08:12:50.342Z,90133.97
2023-12-01T08:15:17.955Z,90131.81
2023-12-01T08:17:46.092Z,90140.53
2023-12-01T08:20:13.143Z,90144.53
2023-12-01T08:22:40.365Z,90150.00
2023-12-01T08:25:09.105Z,90152.72
2023-12-01T08:27:36.183Z,90137.81
2023-12-01T08:30:04.285Z,90144.53
2023-12-01T08:32:31.084Z,90146.69
2023-12-01T08:34:57.793Z,90146.69
2023-12-01T08:37:24.474Z,90158.34
2023-12-01T08:39:52.150Z,90159.63
2023-12-01T08:42:19.488Z,90157.59
2023-12-01T08:44:46.741Z,90148.72
2023-12-01T08:47:15.245Z,90157.59
2023-12-01T08:49:42.324Z,90169.25
2023-12-01T08:52:09.125Z,90169.25
2023-12-01T08:54:36.369Z,90164.53
2023-12-01T08:57:03.301Z,90167.97
2023-12-01T08:59:29.904Z,90163.78
2023-12-01T09:01:56.617Z,90169.25
2023-12-01T09:04:23.446Z,90169.97
2023-12-01T09:06:50.105Z,90161.06
2023-12-01T09:09:16.739Z,90173.41
2023-12-01T09:11:43.418Z,90169.97
2023-12-01T09:14:10.020Z,90164.53
2023-12-01T09:16:36.617Z,90165.22
2023-12-01T09:19:05.214Z,90171.97
2023-12-01T09:21:33.240Z,90172.72
2023-12-01T09:23:59.870Z,90169.25
2023-12-01T09:26:27.027Z,90175.44
2023-12-01T09:28:53.624Z,90164.53
2023-12-01T09:31:20.325Z,90161.81
2023-12-01T09:33:47.233Z,90164.53
2023-12-01T09:36:18.363Z,90180.16
2023-12-01T09:38:45.618Z,90176.13
2023-12-01T09:41:12.361Z,90158.34
2023-12-01T09:43:39.980Z,90159.78
2023-12-01T09:46:08.323Z,90158.34
2023-12-01T09:48:36.135Z,90144.88
2023-12-01T09:51:04.146Z,90157.94
2023-12-01T09:53:30.804Z,90165.56
2023-12-01T09:55:57.993Z,90168.84
2023-12-01T09:58:27.016Z,90165.56
2023-12-01T10:00:53.595Z,90157.41
2023-12-01T10:03:20.298Z,90149.22
2023-12-01T10:05:47.148Z,90139.78
2023-12-01T10:08:13.842Z,90123.41
2023-12-01T10:10:40.464Z,90126.13
2023-12-01T10:13:08.727Z,90111.03
2023-12-01T10:15:41.167Z,90108.47
2023-12-01T10:18:20.428Z,90094.66
2023-12-01T10:20:56.613Z,90091.38
2023-12-01T10:23:23.552Z,90096.13
2023-12-01T10:25:51.630Z,90096.84
2023-12-01T10:28:19.287Z,90090.69
2023-12-01T10:31:00.293Z,90086.66
2023-12-01T10:33:29.931Z,90081.94
2023-12-01T10:36:08.726Z,90093.56
2023-12-01T10:38:37.794Z,90071.72
2023-12-01T10:41:06.150Z,90065.00
2023-12-01T10:43:33.111Z,90062.28
2023-12-01T10:46:06.003Z,90051.38
2023-12-01T10:48:35.388Z,90032.28
2023-12-01T10:51:07.036Z,90040.47
2023-12-01T10:53:36.032Z,90047.34
2023-12-01T10:56:05.591Z,90047.34
2023-12-01T10:58:36.566Z,90048.81
2023-12-01T11:01:03.746Z,90043.38
2023-12-01T11:03:32.995Z,90041.34
2023-12-01T11:06:11.533Z,90039.00
2023-12-01T11:08:53.752Z,90030.34
2023-12-01T11:11:39.697Z,90033.94
2023-12-01T11:14:21.489Z,90031.97
2023-12-01T11:16:51.199Z,90026.66
2023-12-01T11:19:19.723Z,90012.47
2023-12-01T11:21:50.765Z,90004.47
2023-12-01T11:24:34.191Z,90006.63
2023-12-01T11:27:06.326Z,90012.06
2023-12-01T11:29:38.156Z,90009.34
2023-12-01T11:32:05.727Z,90008.09
2023-12-01T11:34:33.199Z,90009.50
2023-12-01T11:37:04.510Z,89998.59
2023-12-01T11:39:31.557Z,90009.50
2023-12-01T11:41:58.293Z,90010.81
2023-12-01T11:44:30.951Z,90008.09
2023-12-01T11:47:02.420Z,90001.91
2023-12-01T11:49:31.742Z,90005.34
2023-12-01T11:51:59.279Z,90011.34
2023-12-01T11:54:26.035Z,90001.16
2023-12-01T11:56:58.773Z,90003.31
2023-12-01T11:59:26.041Z,90002.63
2023-12-01T12:01:55.433Z,89999.72
2023-12-01T12:04:22.685Z,89994.28
2023-12-01T12:06:49.876Z,89998.28
2023-12-01T12:09:20.898Z,89994.44
2023-12-01T12:11:54.461Z,90001.34
2023-12-01T12:14:24.984Z,89999.34
2023-12-01T12:16:52.694Z,89987.69
2023-12-01T12:19:20.303Z,89987.69
2023-12-01T12:21:48.596Z,89989.28
2023-12-01T12:24:15.680Z,89967.00
2023-12-01T12:26:43.557Z,89974.94
2023-12-01T12:29:10.327Z,89982.56
2023-12-01T12:31:38.077Z,89972.94
2023-12-01T12:34:09.936Z,89985.28
2023-12-01T12:36:39.433Z,89969.50
2023-12-01T12:39:08.332Z,89977.13
2023-12-01T12:41:40.912Z,89975.66
2023-12-01T12:44:11.079Z,89967.63
2023-12-01T12:46:38.396Z,89966.94
2023-12-01T12:49:09.047Z,89966.22
2023-12-01T12:51:36.461Z,89966.22
2023-12-01T12:54:04.467Z,89959.28
2023-12-01T12:56:31.138Z,89949.84
2023-12-01T12:58:59.268Z,89953.84
2023-12-01T13:01:26.919Z,89947.13
2023-12-01T13:03:59.454Z,89955.28
2023-12-01T13:06:26.230Z,89956.72
2023-12-01T13:08:53.479Z,89943.66
2023-12-01T13:11:20.864Z,89946.38
2023-12-01T13:13:47.485Z,89955.88
2023-12-01T13:16:14.307Z,89964.03
2023-12-01T13:18:41.527Z,89957.84
2023-12-01T13:21:09.929Z,89968.03
2023-12-01T13:23:39.593Z,89957.13
2023-12-01T13:26:06.707Z,89949.50
2023-12-01T13:28:33.313Z,89938.59
2023-12-01T13:31:00.941Z,89933.16
2023-12-01T13:33:27.760Z,89931.72
2023-12-01T13:35:54.468Z,89948.09
2023-12-01T13:38:21.074Z,89960.44
2023-12-01T13:40:47.737Z,89961.84
2023-12-01T13:43:14.432Z,89960.44
2023-12-01T13:45:41.277Z,89957.69
2023-12-01T13:48:08.217Z,89955.69
2023-12-01T13:50:34.923Z,89954.97
2023-12-01T13:53:01.664Z,89946.22
2023-12-01T13:55:28.324Z,89947.69
2023-12-01T13:57:55.161Z,89945.50
2023-12-01T14:00:21.906Z,89938.94
2023-12-01T14:02:50.795Z,89945.13
2023-12-01T14:05:18.574Z,89940.38
2023-12-01T14:07:46.265Z,89940.38
2023-12-01T14:10:13.104Z,89938.94
2023-12-01T14:12:43.811Z,89940.19
2023-12-01T14:15:11.865Z,89946.94
2023-12-01T14:17:39.689Z,89946.94
2023-12-01T14:20:08.192Z,89948.38
2023-12-01T14:22:35.006Z,89938.78
2023-12-01T14:25:02.924Z,89944.06
2023-12-01T14:27:29.657Z,89952.41
2023-12-01T14:29:56.798Z,89951.69
2023-12-01T14:32:23.548Z,89949.13
2023-12-01T14:34:51.544Z,89962.91
2023-12-01T14:37:19.150Z,89959.63
2023-12-01T14:39:46.838Z,89964.50
2023-12-01T14:42:13.722Z,89963.06
2023-12-01T14:44:41.796Z,89969.81
2023-12-01T14:47:08.664Z,89963.66
2023-12-01T14:49:35.476Z,89952.56
2023-12-01T14:52:02.135Z,89954.56
2023-12-01T14:54:29.402Z,89948.94
2023-12-01T14:56:56.314Z,89951.69
2023-12-01T14:59:25.077Z,89955.13
2023-12-01T15:01:53.630Z,89956.41
2023-12-01T15:04:20.483Z,89957.13
2023-12-01T15:06:47.105Z,89961.84
2023-12-01T15:09:15.539Z,89955.69
2023-12-01T15:11:44.510Z,89959.00
2023-12-01T15:14:11.229Z,89963.72
2023-12-01T15:16:37.963Z,89971.34
2023-12-01T15:19:04.631Z,89967.31
2023-12-01T15:21:31.332Z,89968.59
2023-12-01T15:23:58.594Z,89979.69
2023-12-01T15:26:25.439Z,89972.75
2023-12-01T15:28:52.662Z,89979.00
2023-12-01T15:31:19.500Z,89985.94
2023-12-01T15:33:46.143Z,89979.00
2023-12-01T15:36:12.955Z,89977.19
2023-12-01T15:38:39.558Z,89976.44
2023-12-01T15:41:07.283Z,89984.81
2023-12-01T15:43:34.489Z,89984.81
2023-12-01T15:46:01.368Z,89973.91
2023-12-01T15:48:28.368Z,89980.81
2023-12-01T15:50:55.165Z,89974.63
2023-12-01T15:53:21.791Z,89972.63
2023-12-01T15:55:48.970Z,89971.34
2023-12-01T15:58:15.594Z,89976.22
2023-12-01T16:00:43.876Z,89968.78
2023-12-01T16:03:11.730Z,89979.69
2023-12-01T16:05:38.585Z,89985.88
2023-12-01T16:08:05.540Z,89985.13
2023-12-01T16:10:32.643Z,89986.56
2023-12-01T16:12:59.596Z,89979.69
2023-12-01T16:15:27.589Z,89970.94
2023-12-01T16:17:54.339Z,89977.13
2023-12-01T16:20:21.064Z,89975.66
2023-12-01T16:22:48.210Z,89963.31
2023-12-01T16:25:14.971Z,89968.78
2023-12-01T16:27:41.636Z,89974.22
2023-12-01T16:30:08.855Z,89968.78
2023-12-01T16:32:35.707Z,89968.78
2023-12-01T16:35:03.114Z,89979.69
2023-12-01T16:37:29.750Z,89974.22
2023-12-01T16:39:56.552Z,89976.78
2023-12-01T16:42:23.242Z,89972.75
2023-12-01T16:44:49.982Z,89978.22
2023-12-01T16:47:16.624Z,89972.06
2023-12-01T16:49:43.250Z,89978.22
2023-12-01T16:52:10.061Z,89981.69
2023-12-01T16:54:36.627Z,89978.22
2023-12-01T16:57:04.397Z,89974.22
2023-12-01T16:59:31.055Z,89979.69
2023-12-01T17:01:57.690Z,89979.69
2023-12-01T17:04:24.571Z,89978.38
2023-12-01T17:06:51.305Z,89976.38
2023-12-01T17:09:17.912Z,89979.69
2023-12-01T17:11:44.905Z,89983.84
2023-12-01T17:14:14.061Z,89971.66
2023-12-01T17:16:40.982Z,89975.13
2023-12-01T17:19:07.558Z,89977.13
2023-12-01T17:21:34.212Z,89973.66
2023-12-01T17:24:00.852Z,89958.59
2023-12-01T17:26:27.446Z,89968.78
2023-12-01T17:28:55.319Z,89962.03
2023-12-01T17:31:25.319Z,89949.69
2023-12-01T17:33:54.858Z,89955.13
2023-12-01T17:36:23.391Z,89957.84
2023-12-01T17:38:51.492Z,89965.88
2023-12-01T17:41:18.125Z,89959.13
2023-12-01T17:43:44.785Z,89961.16
2023-12-01T17:46:12.710Z,89957.69
2023-12-01T17:48:39.438Z,89962.59
2023-12-01T17:51:06.577Z,89956.41
2023-12-01T17:53:33.140Z,89952.41
2023-12-01T17:55:59.752Z,89953.13
2023-12-01T17:58:26.312Z,89963.31
2023-12-01T18:00:52.879Z,89960.03
2023-12-01T18:03:19.871Z,89954.56
2023-12-01T18:05:46.531Z,89953.84
2023-12-01T18:08:13.132Z,89959.28
2023-12-01T18:10:39.725Z,89960.03
2023-12-01T18:13:06.344Z,89964.91
2023-12-01T18:15:32.916Z,89963.47
2023-12-01T18:17:59.694Z,89959.28
2023-12-01T18:20:26.375Z,89964.75
2023-12-01T18:22:52.963Z,89966.78
2023-12-01T18:25:19.581Z,89963.31
2023-12-01T18:27:46.172Z,89972.22
2023-12-01T18:30:13.330Z,89970.19
2023-12-01T18:32:40.120Z,89974.22
2023-12-01T18:35:08.549Z,89982.56
2023-12-01T18:37:35.132Z,89985.28
2023-12-01T18:40:02.289Z,89992.75
2023-12-01T18:42:31.481Z,89993.47
2023-12-01T18:44:58.882Z,89996.22
2023-12-01T18:47:25.501Z,89994.91
2023-12-01T18:49:52.057Z,89983.31
2023-12-01T18:52:18.634Z,89994.91
2023-12-01T18:54:45.301Z,90005.13
2023-12-01T18:57:11.876Z,89998.94
2023-12-01T18:59:38.477Z,89996.78
2023-12-01T19:02:05.134Z,89994.91
2023-12-01T19:04:31.869Z,90002.94
2023-12-01T19:06:58.613Z,89998.94
2023-12-01T19:09:25.310Z,90011.28
2023-12-01T19:11:52.009Z,90004.38
2023-12-01T19:14:18.608Z,90004.38
2023-12-01T19:16:45.172Z,90005.81
2023-12-01T19:19:11.884Z,90000.38
2023-12-01T19:21:39.718Z,89993.47
2023-12-01T19:24:07.002Z,90001.66
2023-12-01T19:26:34.817Z,89998.94
2023-12-01T19:29:01.428Z,90002.94
2023-12-01T19:31:28.064Z,89998.22
2023-12-01T19:33:54.708Z,89992.03
2023-12-01T19:36:22.299Z,89996.78
2023-12-01T19:38:48.943Z,89996.03
2023-12-01T19:41:15.633Z,89994.59
2023-12-01T19:43:42.188Z,89995.88
2023-12-01T19:46:10.613Z,90000.03
2023-12-01T19:48:37.312Z,89994.59
2023-12-01T19:51:04.055Z,89994.44
2023-12-01T19:53:30.640Z,89987.13
2023-12-01T19:55:57.327Z,89982.41
2023-12-01T19:58:23.904Z,89987.84
2023-12-01T20:00:50.472Z,89985.88
2023-12-01T20:03:17.152Z,89992.03
2023-12-01T20:05:43.875Z,89982.56
2023-12-01T20:08:10.481Z,89982.56
2023-12-01T20:10:37.793Z,89975.13
2023-12-01T20:13:04.587Z,89979.69
2023-12-01T20:15:31.174Z,89984.00
2023-12-01T20:17:58.852Z,89980.56
2023-12-01T20:20:25.570Z,89978.53
2023-12-01T20:22:52.197Z,89975.66
2023-12-01T20:25:18.759Z,89971.09
2023-12-01T20:27:46.017Z,89969.09
2023-12-01T20:30:12.986Z,89970.53
2023-12-01T20:32:40.058Z,89967.97
2023-12-01T20:35:06.965Z,89967.97
2023-12-01T20:37:33.556Z,89954.31
2023-12-01T20:40:00.243Z,89951.59
2023-12-01T20:42:27.383Z,89962.50
2023-12-01T20:44:54.147Z,89961.78
2023-12-01T20:47:20.794Z,89970.69
2023-12-01T20:49:48.003Z,89973.41
2023-12-01T20:52:14.582Z,89971.44
2023-12-01T20:54:41.239Z,89967.97
2023-12-01T20:57:08.069Z,89967.25
2023-12-01T20:59:34.686Z,89977.44
2023-12-01T21:02:01.318Z,89969.25
2023-12-01T21:04:27.901Z,89978.16
2023-12-01T21:06:54.547Z,89978.88
2023-12-01T21:09:23.294Z,89978.16
2023-12-01T21:11:50.335Z,89978.88
2023-12-01T21:14:16.996Z,89974.72
2023-12-01T21:16:43.556Z,89974.72
2023-12-01T21:19:10.320Z,89972.69
2023-12-01T21:21:37.014Z,89972.00
2023-12-01T21:24:03.782Z,89961.09
2023-12-01T21:26:30.388Z,89958.34
2023-12-01T21:28:56.974Z,89955.63
2023-12-01T21:31:23.625Z,89953.59
2023-12-01T21:33:50.400Z,89944.72
2023-12-01T21:36:17.208Z,89943.97
2023-12-01T21:38:43.974Z,89944.72
2023-12-01T21:41:17.937Z,89942.53
2023-12-01T21:43:45.633Z,89943.25
2023-12-01T21:46:12.322Z,89950.16
2023-12-01T21:48:39.135Z,89946.16
2023-12-01T21:51:06.469Z,89948.72
2023-12-01T21:53:33.096Z,89946.16
2023-12-01T21:55:59.668Z,89948.88
2023-12-01T21:58:26.238Z,89952.91
2023-12-01T22:00:52.825Z,89957.06
2023-12-01T22:03:19.560Z,89963.81
2023-12-01T22:05:46.359Z,89961.09
2023-12-01T22:08:12.976Z,89963.06
2023-12-01T22:10:39.542Z,89963.81
2023-12-01T22:13:06.138Z,89967.81
2023-12-01T22:15:32.803Z,89970.69
2023-12-01T22:17:59.610Z,89967.97
2023-12-01T22:20:26.324Z,89967.97
2023-12-01T22:22:52.882Z,89972.00
2023-12-01T22:25:19.468Z,89972.00
2023-12-01T22:27:46.056Z,89982.91
2023-12-01T22:30:13.011Z,89972.00
2023-12-01T22:32:41.581Z,89977.44
2023-12-01T22:35:08.743Z,89977.44
2023-12-01T22:37:35.315Z,89985.63
2023-12-01T22:40:01.985Z,89982.91
2023-12-01T22:42:28.598Z,89989.78
2023-12-01T22:44:55.253Z,89978.88
2023-12-01T22:47:21.845Z,89976.16
2023-12-01T22:49:49.637Z,89977.44
2023-12-01T22:52:16.311Z,89972.69
2023-12-01T22:54:42.922Z,89976.16
2023-12-01T22:57:09.495Z,89973.41
2023-12-01T22:59:36.219Z,89972.69
2023-12-01T23:02:02.911Z,89967.97
2023-12-01T23:04:29.815Z,89962.50
2023-12-01T23:06:56.516Z,89964.50
2023-12-01T23:09:23.190Z,89963.81
2023-12-01T23:11:50.108Z,89961.78
2023-12-01T23:14:16.694Z,89969.25
2023-12-01T23:16:43.884Z,89955.63
2023-12-01T23:19:10.597Z,89944.72
2023-12-01T23:21:37.306Z,89943.97
2023-12-01T23:24:04.194Z,89939.25
2023-12-01T23:26:30.774Z,89933.81
2023-12-01T23:28:57.401Z,89939.25
2023-12-01T23:31:24.228Z,89943.25
2023-12-01T23:33:51.198Z,89929.06
2023-12-01T23:36:17.999Z,89916.72
2023-12-01T23:38:44.588Z,89911.97
2023-12-01T23:41:11.212Z,89906.53
2023-12-01T23:43:37.767Z,89906.53
2023-12-01T23:46:04.732Z,89907.22
2023-12-01T23:48:31.426Z,89906.53
2023-12-01T23:50:58.129Z,89896.88
2023-12-01T23:53:25.383Z,89903.81
2023-12-01T23:55:52.443Z,89907.97
2023-12-01T23:58:19.034Z,89907.97
